createdAt,value
2017-12-23T00:02:26.203Z,99952.80
2017-12-23T00:04:53.661Z,99954.15
2017-12-23T00:07:21.121Z,99951.59
2017-12-23T00:09:49.189Z,99962.30
2017-12-23T00:12:16.638Z,99958.39
2017-12-23T00:14:44.099Z,99948.75
2017-12-23T00:17:11.814Z,99939.24
2017-12-23T00:19:39.271Z,99936.31
2017-12-23T00:22:06.763Z,99939.30
2017-12-23T00:24:34.544Z,99936.70
2017-12-23T00:27:01.999Z,99930.67
2017-12-23T00:29:29.473Z,99931.05
2017-12-23T00:31:57.295Z,99938.77
2017-12-23T00:34:31.487Z,99945.81
2017-12-23T00:36:59.224Z,99945.86
2017-12-23T00:46:10.202Z,99949.52
2017-12-23T00:48:37.679Z,99939.06
2017-12-23T00:51:05.139Z,99945.19
2017-12-23T00:53:32.860Z,99946.97
2017-12-23T00:56:00.314Z,99936.07
2017-12-23T00:58:27.788Z,99941.95
2017-12-23T01:00:55.418Z,99933.42
2017-12-23T01:03:23.203Z,99925.89
2017-12-23T01:05:50.668Z,99938.14
2017-12-23T01:08:18.441Z,99931.25
2017-12-23T01:10:45.901Z,99932.40
2017-12-23T01:13:13.360Z,99936.98
2017-12-23T01:15:41.128Z,99935.45
2017-12-23T01:18:08.597Z,99930.57
2017-12-23T01:20:36.076Z,99927.09
2017-12-23T01:23:03.810Z,99926.28
2017-12-23T01:25:31.265Z,99933.13
2017-12-23T01:27:58.737Z,99927.09
2017-12-23T01:30:26.506Z,99933.32
2017-12-23T01:32:53.969Z,99932.84
2017-12-23T01:35:21.421Z,99929.31
2017-12-23T01:37:50.429Z,99926.29
2017-12-23T01:40:17.897Z,99921.02
2017-12-23T01:42:45.369Z,99916.19
2017-12-23T01:45:13.422Z,99918.41
2017-12-23T01:47:40.879Z,99912.23
2017-12-23T01:50:08.337Z,99914.08
2017-12-23T01:59:19.788Z,99916.41
2017-12-23T02:01:47.244Z,99915.05
2017-12-23T02:04:15.077Z,99904.48
2017-12-23T02:06:42.770Z,99901.98
2017-12-23T02:09:10.232Z,99905.83
2017-12-23T02:11:37.693Z,99902.48
2017-12-23T02:14:05.457Z,99898.30
2017-12-23T02:16:32.915Z,99897.22
2017-12-23T02:19:00.365Z,99885.17
2017-12-23T02:21:28.073Z,99886.09
2017-12-23T02:23:55.534Z,99885.66
2017-12-23T02:26:22.993Z,99879.09
2017-12-23T02:28:50.821Z,99880.01
2017-12-23T02:31:18.273Z,99881.59
2017-12-23T02:33:46.926Z,99876.86
2017-12-23T02:36:14.749Z,99883.50
2017-12-23T02:38:42.202Z,99864.71
2017-12-23T02:41:09.680Z,99866.28
2017-12-23T02:43:37.387Z,99866.83
2017-12-23T02:46:04.850Z,99854.13
2017-12-23T02:48:32.317Z,99854.39
2017-12-23T02:51:00.135Z,99840.23
2017-12-23T02:53:27.596Z,99834.48
2017-12-23T02:55:55.054Z,99831.05
2017-12-23T02:58:23.130Z,99835.84
2017-12-23T03:00:50.589Z,99844.02
2017-12-23T03:03:18.048Z,99837.95
2017-12-23T03:05:49.831Z,99848.30
2017-12-23T03:08:17.280Z,99846.51
2017-12-23T03:10:44.739Z,99830.41
2017-12-23T03:13:12.518Z,99835.57
2017-12-23T03:15:39.973Z,99827.25
2017-12-23T03:18:07.424Z,99826.27
2017-12-23T03:20:35.173Z,99835.77
2017-12-23T03:23:02.641Z,99825.41
2017-12-23T03:25:30.110Z,99834.77
2017-12-23T03:27:58.200Z,99834.84
2017-12-23T03:30:25.614Z,99827.80
2017-12-23T03:32:53.068Z,99830.44
2017-12-23T03:35:20.861Z,99820.80
2017-12-23T03:37:48.320Z,99809.52
2017-12-23T03:40:15.776Z,99795.75
2017-12-23T03:42:43.570Z,99796.22
2017-12-23T03:45:11.024Z,99796.63
2017-12-23T03:47:38.494Z,99792.26
2017-12-23T03:50:06.234Z,99786.38
2017-12-23T03:52:33.694Z,99798.16
2017-12-23T03:55:01.152Z,99788.05
2017-12-23T03:57:28.916Z,99792.63
2017-12-23T03:59:56.383Z,99793.82
2017-12-23T04:02:23.835Z,99791.16
2017-12-23T04:04:51.599Z,99791.41
2017-12-23T04:07:20.045Z,99791.08
2017-12-23T04:09:47.502Z,99797.59
2017-12-23T04:12:15.520Z,99791.41
2017-12-23T04:14:42.976Z,99786.63
2017-12-23T04:17:10.444Z,99781.40
2017-12-23T04:19:38.511Z,99790.10
2017-12-23T04:22:05.968Z,99784.89
2017-12-23T04:24:33.430Z,99788.55
2017-12-23T04:27:01.208Z,99802.44
2017-12-23T04:29:28.665Z,99791.52
2017-12-23T04:31:56.126Z,99788.80
2017-12-23T04:34:23.875Z,99808.03
2017-12-23T04:36:51.325Z,99816.16
2017-12-23T04:39:18.777Z,99804.06
2017-12-23T04:41:46.486Z,99813.48
2017-12-23T04:44:13.941Z,99821.44
2017-12-23T04:46:41.385Z,99826.07
2017-12-23T04:49:09.252Z,99824.84
2017-12-23T04:51:36.721Z,99822.55
2017-12-23T04:54:04.189Z,99830.48
2017-12-23T04:56:31.937Z,99825.45
2017-12-23T04:58:59.396Z,99833.77
2017-12-23T05:01:26.852Z,99838.55
2017-12-23T05:03:54.620Z,99828.92
2017-12-23T05:06:22.085Z,99818.52
2017-12-23T05:08:50.218Z,99802.12
2017-12-23T05:11:18.131Z,99813.04
2017-12-23T05:13:45.589Z,99805.67
2017-12-23T05:16:13.054Z,99803.99
2017-12-23T05:18:40.881Z,99802.27
2017-12-23T05:21:08.326Z,99798.72
2017-12-23T05:23:35.782Z,99796.98
2017-12-23T05:26:03.593Z,99797.42
2017-12-23T05:28:31.052Z,99783.07
2017-12-23T05:30:58.513Z,99800.69
2017-12-23T05:33:26.245Z,99807.09
2017-12-23T05:35:53.697Z,99795.84
2017-12-23T05:38:21.175Z,99792.94
2017-12-23T05:40:49.591Z,99810.20
2017-12-23T05:43:17.049Z,99805.33
2017-12-23T05:45:44.508Z,99785.77
2017-12-23T05:48:13.020Z,99796.59
2017-12-23T05:50:40.477Z,99790.73
2017-12-23T05:53:07.930Z,99788.33
2017-12-23T05:55:35.884Z,99782.11
2017-12-23T05:58:03.349Z,99791.30
2017-12-23T06:00:30.805Z,99773.05
2017-12-23T06:02:58.542Z,99792.84
2017-12-23T06:05:25.997Z,99774.73
2017-12-23T06:07:53.453Z,99786.32
2017-12-23T06:10:21.817Z,99801.09
2017-12-23T06:12:49.280Z,99793.52
2017-12-23T06:15:16.745Z,99798.29
2017-12-23T06:17:44.554Z,99802.41
2017-12-23T06:20:12.022Z,99793.56
2017-12-23T06:22:39.477Z,99817.09
2017-12-23T06:25:07.554Z,99807.03
2017-12-23T06:27:35.009Z,99817.16
2017-12-23T06:30:02.477Z,99820.09
2017-12-23T06:32:30.274Z,99830.41
2017-12-23T06:34:57.734Z,99808.87
2017-12-23T06:37:25.193Z,99806.19
2017-12-23T06:39:53.540Z,99797.19
2017-12-23T06:42:21.005Z,99797.70
2017-12-23T06:44:48.457Z,99789.02
2017-12-23T06:47:16.545Z,99811.66
2017-12-23T06:49:44.019Z,99803.77
2017-12-23T06:52:11.761Z,99800.81
2017-12-23T06:54:39.512Z,99818.55
2017-12-23T06:57:06.978Z,99815.88
2017-12-23T06:59:34.442Z,99815.21
2017-12-23T07:02:02.840Z,99838.05
2017-12-23T07:04:30.292Z,99816.45
2017-12-23T07:06:57.757Z,99806.50
2017-12-23T07:09:25.831Z,99803.89
2017-12-23T07:11:55.518Z,99825.14
2017-12-23T07:14:22.983Z,99832.97
2017-12-23T07:16:50.705Z,99822.08
2017-12-23T07:19:18.182Z,99819.13
2017-12-23T07:21:45.644Z,99811.28
2017-12-23T07:24:13.657Z,99816.89
2017-12-23T07:26:41.113Z,99821.09
2017-12-23T07:29:08.581Z,99822.09
2017-12-23T07:31:36.366Z,99814.35
2017-12-23T07:34:03.826Z,99808.50
2017-12-23T07:36:31.276Z,99796.27
2017-12-23T07:38:59.042Z,99798.43
2017-12-23T07:41:26.514Z,99809.97
2017-12-23T07:43:53.975Z,99818.51
2017-12-23T07:46:22.325Z,99808.97
2017-12-23T07:48:49.802Z,99802.78
2017-12-23T07:51:17.270Z,99807.82
2017-12-23T07:53:45.017Z,99824.75
2017-12-23T07:56:12.487Z,99813.83
2017-12-23T07:58:39.962Z,99829.77
2017-12-23T08:01:07.711Z,99808.68
2017-12-23T08:03:35.172Z,99824.87
2017-12-23T08:06:02.635Z,99827.39
2017-12-23T08:08:30.444Z,99818.17
2017-12-23T08:10:57.913Z,99829.43
2017-12-23T08:13:26.003Z,99834.50
2017-12-23T08:15:53.949Z,99837.67
2017-12-23T08:18:21.408Z,99826.95
2017-12-23T08:20:48.870Z,99829.69
2017-12-23T08:23:16.593Z,99833.31
2017-12-23T08:25:44.062Z,99833.98
2017-12-23T08:28:11.521Z,99832.98
2017-12-23T08:30:39.382Z,99836.64
2017-12-23T08:33:06.846Z,99836.59
2017-12-23T08:35:34.321Z,99839.86
2017-12-23T08:38:02.069Z,99833.02
2017-12-23T08:40:29.527Z,99838.41
2017-12-23T08:42:56.989Z,99836.00
2017-12-23T08:45:24.705Z,99827.14
2017-12-23T08:47:52.424Z,99826.48
2017-12-23T08:50:19.890Z,99825.45
2017-12-23T08:52:47.748Z,99829.88
2017-12-23T08:55:15.203Z,99845.56
2017-12-23T08:57:42.654Z,99838.38
2017-12-23T09:00:10.439Z,99829.89
2017-12-23T09:02:37.902Z,99843.73
2017-12-23T09:05:05.360Z,99844.89
2017-12-23T09:07:33.118Z,99841.34
2017-12-23T09:10:00.602Z,99852.47
2017-12-23T09:12:28.058Z,99849.77
2017-12-23T09:14:56.424Z,99860.70
2017-12-23T09:17:23.879Z,99849.44
2017-12-23T09:19:51.357Z,99857.21
2017-12-23T09:22:19.121Z,99868.02
2017-12-23T09:24:46.585Z,99858.97
2017-12-23T09:27:14.040Z,99859.67
2017-12-23T09:29:41.755Z,99866.65
2017-12-23T09:32:09.211Z,99851.59
2017-12-23T09:34:36.676Z,99853.61
2017-12-23T09:37:04.537Z,99860.38
2017-12-23T09:39:31.953Z,99835.53
2017-12-23T09:41:59.408Z,99833.22
2017-12-23T09:44:27.171Z,99837.48
2017-12-23T09:46:54.613Z,99837.84
2017-12-23T09:49:22.074Z,99826.95
2017-12-23T09:51:49.861Z,99833.74
2017-12-23T09:54:17.311Z,99829.41
2017-12-23T09:56:44.774Z,99831.59
2017-12-23T09:59:12.548Z,99836.50
2017-12-23T10:01:40.005Z,99855.38
2017-12-23T10:04:07.488Z,99828.09
2017-12-23T10:06:35.123Z,99829.86
2017-12-23T10:09:02.576Z,99825.50
2017-12-23T10:11:30.028Z,99811.30
2017-12-23T10:13:57.923Z,99834.42
2017-12-23T10:16:25.760Z,99812.61
2017-12-23T10:18:53.213Z,99818.42
2017-12-23T10:21:20.916Z,99812.34
2017-12-23T10:23:48.387Z,99808.48
2017-12-23T10:26:15.856Z,99818.88
2017-12-23T10:28:43.907Z,99815.20
2017-12-23T10:31:11.370Z,99819.15
2017-12-23T10:33:38.834Z,99797.63
2017-12-23T10:36:06.601Z,99795.11
2017-12-23T10:38:34.071Z,99778.44
2017-12-23T10:41:01.526Z,99772.23
2017-12-23T10:43:29.327Z,99770.48
2017-12-23T10:45:56.762Z,99762.32
2017-12-23T10:48:24.229Z,99758.05
2017-12-23T10:50:51.965Z,99772.22
2017-12-23T10:53:19.422Z,99755.07
2017-12-23T10:55:46.877Z,99741.56
2017-12-23T10:58:14.965Z,99723.23
2017-12-23T11:00:42.425Z,99733.88
2017-12-23T11:03:09.885Z,99727.70
2017-12-23T11:05:37.655Z,99742.59
2017-12-23T11:08:05.133Z,99728.64
2017-12-23T11:10:32.602Z,99752.59
2017-12-23T11:13:00.285Z,99712.72
2017-12-23T11:15:27.740Z,99723.63
2017-12-23T11:17:55.717Z,99712.88
2017-12-23T11:20:23.458Z,99723.68
2017-12-23T11:22:50.916Z,99721.86
2017-12-23T11:25:18.370Z,99716.63
2017-12-23T11:27:46.322Z,99690.73
2017-12-23T11:30:13.790Z,99710.55
2017-12-23T11:32:41.239Z,99711.86
2017-12-23T11:35:09.006Z,99720.63
2017-12-23T11:37:36.450Z,99695.03
2017-12-23T11:40:03.891Z,99697.64
2017-12-23T11:42:31.483Z,99688.95
2017-12-23T11:44:58.934Z,99708.20
2017-12-23T11:47:26.389Z,99701.98
2017-12-23T11:49:54.389Z,99693.93
2017-12-23T11:52:21.844Z,99694.38
2017-12-23T11:54:49.301Z,99683.66
2017-12-23T11:57:17.065Z,99688.09
2017-12-23T11:59:44.514Z,99702.16
2017-12-23T12:02:11.966Z,99690.53
2017-12-23T12:04:39.707Z,99700.38
2017-12-23T12:07:07.166Z,99690.48
2017-12-23T12:09:34.630Z,99704.00
2017-12-23T12:12:02.453Z,99686.28
2017-12-23T12:14:29.905Z,99684.84
2017-12-23T12:16:57.361Z,99694.05
2017-12-23T12:19:25.749Z,99689.88
2017-12-23T12:21:53.197Z,99657.41
2017-12-23T12:24:20.653Z,99674.38
2017-12-23T12:26:48.442Z,99667.52
2017-12-23T12:29:15.901Z,99676.30
2017-12-23T12:31:43.362Z,99681.34
2017-12-23T12:34:11.117Z,99661.64
2017-12-23T12:36:38.581Z,99671.92
2017-12-23T12:39:06.028Z,99689.88
2017-12-23T12:41:34.123Z,99669.23
2017-12-23T12:44:01.571Z,99655.84
2017-12-23T12:46:29.018Z,99667.07
2017-12-23T12:48:56.796Z,99698.02
2017-12-23T12:51:24.245Z,99676.56
2017-12-23T12:53:51.697Z,99697.72
2017-12-23T12:56:19.505Z,99682.52
2017-12-23T12:58:46.968Z,99699.84
2017-12-23T13:01:14.413Z,99696.42
2017-12-23T13:03:42.189Z,99695.23
2017-12-23T13:06:09.654Z,99692.34
2017-12-23T13:08:37.101Z,99710.69
2017-12-23T13:11:05.173Z,99689.38
2017-12-23T13:13:32.629Z,99688.98
2017-12-23T13:16:00.078Z,99680.95
2017-12-23T13:18:27.812Z,99695.92
2017-12-23T13:20:55.708Z,99688.41
2017-12-23T13:23:23.159Z,99687.28
2017-12-23T13:25:51.154Z,99677.71
2017-12-23T13:28:18.614Z,99675.42
2017-12-23T13:30:46.074Z,99667.80
2017-12-23T13:33:13.848Z,99655.20
2017-12-23T13:35:41.310Z,99666.14
2017-12-23T13:38:08.761Z,99649.98
2017-12-23T13:40:36.516Z,99659.19
2017-12-23T13:43:03.965Z,99647.41
2017-12-23T13:45:31.409Z,99641.16
2017-12-23T13:47:59.220Z,99651.00
2017-12-23T13:50:26.676Z,99647.01
2017-12-23T13:52:54.132Z,99636.65
2017-12-23T13:55:21.869Z,99643.17
2017-12-23T13:57:49.330Z,99647.99
2017-12-23T14:00:16.777Z,99644.03
2017-12-23T14:02:44.480Z,99641.09
2017-12-23T14:05:11.942Z,99635.92
2017-12-23T14:07:39.446Z,99649.28
2017-12-23T14:10:07.285Z,99663.54
2017-12-23T14:12:34.746Z,99640.55
2017-12-23T14:15:02.202Z,99661.37
2017-12-23T14:17:29.963Z,99653.06
2017-12-23T14:19:57.417Z,99662.80
2017-12-23T14:22:25.573Z,99680.16
2017-12-23T14:24:53.530Z,99663.98
2017-12-23T14:27:20.982Z,99662.03
2017-12-23T14:29:48.440Z,99663.16
2017-12-23T14:32:16.266Z,99682.22
2017-12-23T14:34:43.726Z,99670.02
2017-12-23T14:37:11.217Z,99666.93
2017-12-23T14:39:39.258Z,99653.13
2017-12-23T14:42:06.703Z,99657.05
2017-12-23T14:44:34.159Z,99646.33
2017-12-23T14:47:02.000Z,99655.07
2017-12-23T14:49:29.440Z,99650.05
2017-12-23T14:51:56.888Z,99648.73
2017-12-23T14:54:24.634Z,99651.00
2017-12-23T14:56:52.101Z,99646.22
2017-12-23T14:59:19.556Z,99662.80
2017-12-23T15:01:47.500Z,99655.63
2017-12-23T15:04:14.956Z,99653.34
2017-12-23T15:06:42.404Z,99650.40
2017-12-23T15:09:10.306Z,99669.98
2017-12-23T15:11:37.756Z,99654.56
2017-12-23T15:14:05.208Z,99670.50
2017-12-23T15:16:32.997Z,99658.70
2017-12-23T15:19:00.457Z,99671.13
2017-12-23T15:21:27.902Z,99657.14
2017-12-23T15:23:55.709Z,99656.38
2017-12-23T15:26:23.156Z,99660.30
2017-12-23T15:28:50.625Z,99668.47
2017-12-23T15:31:18.736Z,99658.11
2017-12-23T15:33:46.192Z,99644.72
2017-12-23T15:36:13.658Z,99650.74
2017-12-23T15:38:41.669Z,99659.42
2017-12-23T15:41:09.119Z,99663.70
2017-12-23T15:43:36.569Z,99639.46
2017-12-23T15:46:04.361Z,99665.96
2017-12-23T15:48:31.812Z,99645.58
2017-12-23T15:50:59.261Z,99643.80
2017-12-23T15:53:27.046Z,99640.52
2017-12-23T15:55:54.497Z,99649.50
2017-12-23T15:58:21.955Z,99623.62
2017-12-23T16:00:49.745Z,99626.14
2017-12-23T16:03:17.193Z,99652.88
2017-12-23T16:05:44.643Z,99636.28
2017-12-23T16:08:12.421Z,99643.17
2017-12-23T16:10:39.872Z,99626.82
2017-12-23T16:13:07.330Z,99618.84
2017-12-23T16:15:35.110Z,99630.27
2017-12-23T16:18:02.561Z,99623.84
2017-12-23T16:20:30.021Z,99631.03
2017-12-23T16:22:57.770Z,99639.16
2017-12-23T16:25:25.537Z,99637.94
2017-12-23T16:27:53.001Z,99639.70
2017-12-23T16:30:21.043Z,99635.23
2017-12-23T16:32:48.502Z,99635.86
2017-12-23T16:35:15.966Z,99634.95
2017-12-23T16:37:43.632Z,99632.00
2017-12-23T16:40:11.087Z,99633.33
2017-12-23T16:42:38.537Z,99623.33
2017-12-23T16:45:06.473Z,99619.20
2017-12-23T16:47:33.925Z,99612.13
2017-12-23T16:50:01.373Z,99610.13
2017-12-23T16:52:29.149Z,99616.67
2017-12-23T16:54:56.599Z,99602.19
2017-12-23T16:57:24.045Z,99621.72
2017-12-23T16:59:51.893Z,99610.97
2017-12-23T17:02:19.357Z,99619.62
2017-12-23T17:04:46.817Z,99618.03
2017-12-23T17:07:14.834Z,99614.69
2017-12-23T17:09:42.282Z,99610.55
2017-12-23T17:12:09.736Z,99615.88
2017-12-23T17:14:37.833Z,99611.72
2017-12-23T17:17:05.288Z,99603.89
2017-12-23T17:19:32.738Z,99613.18
2017-12-23T17:22:00.838Z,99598.13
2017-12-23T17:24:28.292Z,99592.51
2017-12-23T17:26:56.161Z,99591.20
2017-12-23T17:29:35.807Z,99603.88
2017-12-23T17:32:03.270Z,99589.50
2017-12-23T17:34:30.725Z,99581.13
2017-12-23T17:36:58.486Z,99593.45
2017-12-23T17:42:56.702Z,99591.63
2017-12-23T17:45:24.165Z,99578.96
2017-12-23T17:47:51.621Z,99592.20
2017-12-23T17:50:19.377Z,99592.78
2017-12-23T17:52:46.823Z,99585.23
2017-12-23T17:55:14.284Z,99600.72
2017-12-23T17:57:42.072Z,99609.34
2017-12-23T18:00:09.608Z,99597.51
2017-12-23T18:02:37.063Z,99595.13
2017-12-23T18:05:04.763Z,99598.06
2017-12-23T18:07:32.218Z,99591.76
2017-12-23T18:09:59.665Z,99612.70
2017-12-23T18:12:27.451Z,99603.19
2017-12-23T18:14:54.903Z,99595.97
2017-12-23T18:17:22.358Z,99595.88
2017-12-23T18:19:49.995Z,99600.90
2017-12-23T18:22:17.443Z,99605.84
2017-12-23T18:24:44.894Z,99603.81
2017-12-23T18:27:15.573Z,99614.53
2017-12-23T18:29:43.020Z,99597.31
2017-12-23T18:32:10.462Z,99608.31
2017-12-23T18:34:38.894Z,99604.05
2017-12-23T18:37:06.339Z,99617.58
2017-12-23T18:39:33.784Z,99622.23
2017-12-23T18:42:01.881Z,99637.56
2017-12-23T18:44:29.324Z,99617.48
2017-12-23T18:46:56.772Z,99620.54
2017-12-23T18:49:24.564Z,99613.69
2017-12-23T18:51:52.001Z,99618.67
2017-12-23T18:54:19.450Z,99622.77
2017-12-23T18:56:47.246Z,99617.00
2017-12-23T18:59:14.717Z,99619.25
2017-12-23T19:01:42.167Z,99627.19
2017-12-23T19:04:09.936Z,99627.76
2017-12-23T19:06:37.406Z,99633.48
2017-12-23T19:09:04.853Z,99639.52
2017-12-23T19:11:32.591Z,99649.96
2017-12-23T19:14:00.030Z,99655.23
2017-12-23T19:16:39.528Z,99659.20
2017-12-23T19:19:06.965Z,99669.78
2017-12-23T19:21:34.415Z,99674.57
2017-12-23T19:24:02.217Z,99671.86
2017-12-23T19:26:29.680Z,99676.43
2017-12-23T19:28:57.813Z,99680.19
2017-12-23T19:31:25.521Z,99678.53
2017-12-23T19:33:52.974Z,99676.74
2017-12-23T19:36:20.417Z,99682.35
2017-12-23T19:38:48.202Z,99674.69
2017-12-23T19:41:15.650Z,99668.25
2017-12-23T19:43:43.102Z,99667.82
2017-12-23T19:46:10.885Z,99660.83
2017-12-23T19:48:38.334Z,99658.72
2017-12-23T19:51:05.789Z,99646.98
2017-12-23T19:53:33.573Z,99657.44
2017-12-23T19:56:01.013Z,99651.84
2017-12-23T19:58:28.463Z,99646.34
2017-12-23T20:00:56.328Z,99659.88
2017-12-23T20:03:23.781Z,99655.92
2017-12-23T20:05:51.225Z,99645.52
2017-12-23T20:08:18.943Z,99651.27
2017-12-23T20:10:46.398Z,99647.25
2017-12-23T20:13:13.841Z,99648.64
2017-12-23T20:15:41.631Z,99651.80
2017-12-23T20:18:09.076Z,99657.08
2017-12-23T20:20:36.518Z,99660.80
2017-12-23T20:23:04.377Z,99661.47
2017-12-23T20:25:31.837Z,99648.39
2017-12-23T20:27:59.296Z,99665.20
2017-12-23T20:30:27.937Z,99659.28
2017-12-23T20:32:55.380Z,99656.50
2017-12-23T20:35:22.833Z,99656.59
2017-12-23T20:37:50.942Z,99651.89
2017-12-23T20:40:18.391Z,99648.39
2017-12-23T20:42:45.848Z,99654.02
2017-12-23T20:45:13.627Z,99652.25
2017-12-23T20:47:41.057Z,99657.98
2017-12-23T20:50:08.512Z,99667.68
2017-12-23T20:52:36.293Z,99661.23
2017-12-23T20:55:03.732Z,99660.36
2017-12-23T20:57:32.187Z,99660.39
2017-12-23T21:00:00.229Z,99654.35
2017-12-23T21:02:27.668Z,99669.96
2017-12-23T21:04:55.112Z,99664.46
2017-12-23T21:07:22.909Z,99670.15
2017-12-23T21:09:50.384Z,99668.05
2017-12-23T21:12:17.837Z,99665.55
2017-12-23T21:14:45.906Z,99665.95
2017-12-23T21:17:13.366Z,99657.69
2017-12-23T21:19:40.829Z,99653.30
2017-12-23T21:22:08.554Z,99677.73
2017-12-23T21:24:35.997Z,99656.92
2017-12-23T21:27:03.469Z,99657.80
2017-12-23T21:29:31.271Z,99660.47
2017-12-23T21:32:00.245Z,99672.25
2017-12-23T21:34:27.705Z,99674.41
2017-12-23T21:36:55.502Z,99663.63
2017-12-23T21:39:22.949Z,99676.16
2017-12-23T21:41:50.397Z,99670.94
2017-12-23T21:44:18.486Z,99676.66
2017-12-23T21:46:45.954Z,99673.22
2017-12-23T21:49:13.417Z,99683.58
2017-12-23T21:51:41.477Z,99679.23
2017-12-23T21:54:08.926Z,99680.94
2017-12-23T21:56:36.393Z,99677.02
2017-12-23T21:59:04.167Z,99690.89
2017-12-23T22:01:31.621Z,99677.45
2017-12-23T22:03:59.072Z,99673.47
2017-12-23T22:06:27.161Z,99677.38
2017-12-23T22:08:54.621Z,99676.49
2017-12-23T22:11:22.121Z,99671.34
2017-12-23T22:13:49.846Z,99682.10
2017-12-23T22:16:17.334Z,99670.67
2017-12-23T22:18:44.782Z,99668.98
2017-12-23T22:21:12.534Z,99668.49
2017-12-23T22:23:39.976Z,99663.36
2017-12-23T22:26:07.429Z,99656.38
2017-12-23T22:28:35.541Z,99658.20
2017-12-23T22:31:02.991Z,99657.89
2017-12-23T22:33:31.440Z,99667.88
2017-12-23T22:35:59.146Z,99646.40
2017-12-23T22:38:26.594Z,99657.33
2017-12-23T22:40:54.063Z,99657.78
2017-12-23T22:43:21.833Z,99651.78
2017-12-23T22:45:49.288Z,99651.35
2017-12-23T22:48:16.757Z,99642.64
2017-12-23T22:50:44.512Z,99652.67
2017-12-23T22:53:11.986Z,99646.05
2017-12-23T22:55:39.440Z,99648.30
2017-12-23T22:58:07.192Z,99634.73
2017-12-23T23:00:34.650Z,99638.78
2017-12-23T23:03:02.110Z,99629.89
2017-12-23T23:05:29.880Z,99638.70
2017-12-23T23:07:57.331Z,99642.58
2017-12-23T23:10:24.788Z,99640.89
2017-12-23T23:12:52.877Z,99641.80
2017-12-23T23:15:20.324Z,99637.92
2017-12-23T23:17:47.769Z,99621.74
2017-12-23T23:20:15.874Z,99640.84
2017-12-23T23:22:43.329Z,99631.70
2017-12-23T23:25:10.792Z,99643.70
2017-12-23T23:27:38.560Z,99637.33
2017-12-23T23:30:06.017Z,99642.97
2017-12-23T23:32:33.476Z,99649.11
2017-12-23T23:35:02.476Z,99642.12
2017-12-23T23:37:30.169Z,99659.25
2017-12-23T23:39:57.620Z,99648.98
2017-12-23T23:42:25.472Z,99654.73
2017-12-23T23:44:52.932Z,99651.81
2017-12-23T23:47:20.390Z,99649.09
2017-12-23T23:49:48.169Z,99638.11
2017-12-23T23:52:15.630Z,99648.13
2017-12-23T23:54:43.081Z,99647.28
2017-12-23T23:57:10.852Z,99639.41
2017-12-23T23:59:38.308Z,99651.35
